sensor_id;sensor_type;location;lat;lon;timestamp;P1;durP1;ratioP1;P2;durP2;ratioP2
7517;SDS011;3800;48.922;9.444;2022-11-15T00:02:16;4.43;;;3.40;;
7517;SDS011;3800;48.922;9.444;2022-11-15T00:04:44;4.37;;;3.10;;
7517;SDS011;3800;48.922;9.444;2022-11-15T00:07:12;3.57;;;3.00;;
7517;SDS011;3800;48.922;9.444;2022-11-15T00:09:39;3.33;;;3.03;;
7517;SDS011;3800;48.922;9.444;2022-11-15T00:12:07;3.90;;;2.77;;
7517;SDS011;3800;48.922;9.444;2022-11-15T00:14:35;4.20;;;2.80;;
7517;SDS011;3800;48.922;9.444;2022-11-15T00:17:04;2.77;;;2.57;;
7517;SDS011;3800;48.922;9.444;2022-11-15T00:19:31;4.63;;;2.67;;
7517;SDS011;3800;48.922;9.444;2022-11-15T00:22:00;5.27;;;2.50;;
7517;SDS011;3800;48.922;9.444;2022-11-15T00:24:27;3.63;;;2.50;;
7517;SDS011;3800;48.922;9.444;2022-11-15T00:26:55;4.27;;;2.60;;
7517;SDS011;3800;48.922;9.444;2022-11-15T00:29:23;3.87;;;2.37;;
7517;SDS011;3800;48.922;9.444;2022-11-15T00:31:50;4.60;;;2.57;;
7517;SDS011;3800;48.922;9.444;2022-11-15T00:34:18;3.67;;;2.60;;
7517;SDS011;3800;48.922;9.444;2022-11-15T00:36:45;2.93;;;2.20;;
7517;SDS011;3800;48.922;9.444;2022-11-15T00:39:13;4.80;;;2.27;;
7517;SDS011;3800;48.922;9.444;2022-11-15T00:41:41;6.63;;;2.50;;
7517;SDS011;3800;48.922;9.444;2022-11-15T00:44:08;3.10;;;2.10;;
7517;SDS011;3800;48.922;9.444;2022-11-15T00:46:36;4.07;;;2.07;;
7517;SDS011;3800;48.922;9.444;2022-11-15T00:49:04;2.97;;;1.83;;
7517;SDS011;3800;48.922;9.444;2022-11-15T00:51:31;2.30;;;2.10;;
7517;SDS011;3800;48.922;9.444;2022-11-15T00:53:59;2.60;;;2.00;;
7517;SDS011;3800;48.922;9.444;2022-11-15T00:56:27;3.30;;;1.97;;
7517;SDS011;3800;48.922;9.444;2022-11-15T00:58:55;3.30;;;2.33;;
7517;SDS011;3800;48.922;9.444;2022-11-15T01:01:23;2.80;;;1.97;;
7517;SDS011;3800;48.922;9.444;2022-11-15T01:03:50;2.73;;;1.80;;
7517;SDS011;3800;48.922;9.444;2022-11-15T01:06:18;3.03;;;1.90;;
7517;SDS011;3800;48.922;9.444;2022-11-15T01:08:45;3.20;;;2.10;;
7517;SDS011;3800;48.922;9.444;2022-11-15T01:11:13;4.23;;;2.37;;
7517;SDS011;3800;48.922;9.444;2022-11-15T01:13:41;3.27;;;2.67;;
7517;SDS011;3800;48.922;9.444;2022-11-15T01:16:10;4.60;;;2.90;;
7517;SDS011;3800;48.922;9.444;2022-11-15T01:18:38;4.47;;;2.83;;
7517;SDS011;3800;48.922;9.444;2022-11-15T01:21:07;4.87;;;2.80;;
7517;SDS011;3800;48.922;9.444;2022-11-15T01:23:35;3.00;;;2.60;;
7517;SDS011;3800;48.922;9.444;2022-11-15T01:26:04;3.63;;;2.47;;
7517;SDS011;3800;48.922;9.444;2022-11-15T01:28:32;3.13;;;2.30;;
7517;SDS011;3800;48.922;9.444;2022-11-15T01:31:00;5.30;;;2.50;;
7517;SDS011;3800;48.922;9.444;2022-11-15T01:33:27;3.17;;;2.17;;
7517;SDS011;3800;48.922;9.444;2022-11-15T01:35:54;3.63;;;2.30;;
7517;SDS011;3800;48.922;9.444;2022-11-15T01:38:22;3.40;;;2.40;;
7517;SDS011;3800;48.922;9.444;2022-11-15T01:40:50;3.67;;;2.73;;
7517;SDS011;3800;48.922;9.444;2022-11-15T01:43:19;3.70;;;2.50;;
7517;SDS011;3800;48.922;9.444;2022-11-15T01:45:51;4.00;;;2.43;;
7517;SDS011;3800;48.922;9.444;2022-11-15T01:48:17;4.20;;;2.30;;
7517;SDS011;3800;48.922;9.444;2022-11-15T01:50:45;3.40;;;2.37;;
7517;SDS011;3800;48.922;9.444;2022-11-15T01:53:12;4.43;;;2.30;;
7517;SDS011;3800;48.922;9.444;2022-11-15T01:55:40;2.37;;;2.17;;
7517;SDS011;3800;48.922;9.444;2022-11-15T01:58:07;2.93;;;2.60;;
7517;SDS011;3800;48.922;9.444;2022-11-15T02:00:35;4.87;;;2.60;;
7517;SDS011;3800;48.922;9.444;2022-11-15T02:03:03;2.90;;;2.30;;
7517;SDS011;3800;48.922;9.444;2022-11-15T02:05:31;5.10;;;2.80;;
7517;SDS011;3800;48.922;9.444;2022-11-15T02:07:59;2.67;;;2.37;;
7517;SDS011;3800;48.922;9.444;2022-11-15T02:10:26;4.07;;;2.73;;
7517;SDS011;3800;48.922;9.444;2022-11-15T02:12:54;3.30;;;2.60;;
7517;SDS011;3800;48.922;9.444;2022-11-15T02:15:23;3.03;;;2.67;;
7517;SDS011;3800;48.922;9.444;2022-11-15T02:17:53;2.87;;;2.50;;
7517;SDS011;3800;48.922;9.444;2022-11-15T02:20:32;4.10;;;2.53;;
7517;SDS011;3800;48.922;9.444;2022-11-15T02:23:34;5.03;;;2.50;;
7517;SDS011;3800;48.922;9.444;2022-11-15T02:26:11;4.23;;;2.70;;
7517;SDS011;3800;48.922;9.444;2022-11-15T02:28:48;3.80;;;2.73;;
7517;SDS011;3800;48.922;9.444;2022-11-15T02:31:24;3.53;;;2.70;;
7517;SDS011;3800;48.922;9.444;2022-11-15T02:34:04;3.23;;;2.87;;
7517;SDS011;3800;48.922;9.444;2022-11-15T02:36:42;3.47;;;2.90;;
7517;SDS011;3800;48.922;9.444;2022-11-15T02:38:59;3.37;;;3.07;;
7517;SDS011;3800;48.922;9.444;2022-11-15T02:41:30;4.30;;;2.70;;
7517;SDS011;3800;48.922;9.444;2022-11-15T02:44:03;3.63;;;3.27;;
7517;SDS011;3800;48.922;9.444;2022-11-15T02:46:35;4.67;;;3.40;;
7517;SDS011;3800;48.922;9.444;2022-11-15T02:49:12;5.47;;;3.33;;
7517;SDS011;3800;48.922;9.444;2022-11-15T02:51:39;4.10;;;3.27;;
7517;SDS011;3800;48.922;9.444;2022-11-15T02:54:10;3.83;;;3.40;;
7517;SDS011;3800;48.922;9.444;2022-11-15T02:56:35;5.13;;;3.83;;
7517;SDS011;3800;48.922;9.444;2022-11-15T03:01:46;6.13;;;3.70;;
7517;SDS011;3800;48.922;9.444;2022-11-15T03:04:14;4.00;;;3.60;;
7517;SDS011;3800;48.922;9.444;2022-11-15T03:06:41;4.53;;;3.80;;
7517;SDS011;3800;48.922;9.444;2022-11-15T03:09:13;5.03;;;3.77;;
7517;SDS011;3800;48.922;9.444;2022-11-15T03:11:40;5.03;;;3.80;;
7517;SDS011;3800;48.922;9.444;2022-11-15T03:14:12;5.47;;;4.07;;
7517;SDS011;3800;48.922;9.444;2022-11-15T03:19:53;5.77;;;3.77;;
7517;SDS011;3800;48.922;9.444;2022-11-15T03:22:20;6.37;;;4.30;;
7517;SDS011;3800;48.922;9.444;2022-11-15T03:24:50;5.33;;;3.80;;
7517;SDS011;3800;48.922;9.444;2022-11-15T03:27:17;5.90;;;4.03;;
7517;SDS011;3800;48.922;9.444;2022-11-15T03:29:44;6.00;;;4.33;;
7517;SDS011;3800;48.922;9.444;2022-11-15T03:32:14;5.93;;;4.30;;
7517;SDS011;3800;48.922;9.444;2022-11-15T03:34:42;6.13;;;4.40;;
7517;SDS011;3800;48.922;9.444;2022-11-15T03:37:08;5.93;;;4.43;;
7517;SDS011;3800;48.922;9.444;2022-11-15T03:39:36;5.63;;;4.60;;
7517;SDS011;3800;48.922;9.444;2022-11-15T03:42:06;5.90;;;4.67;;
7517;SDS011;3800;48.922;9.444;2022-11-15T03:44:59;6.07;;;4.43;;
7517;SDS011;3800;48.922;9.444;2022-11-15T03:47:29;5.47;;;4.30;;
7517;SDS011;3800;48.922;9.444;2022-11-15T03:49:57;5.73;;;4.50;;
7517;SDS011;3800;48.922;9.444;2022-11-15T03:52:24;5.07;;;4.40;;
7517;SDS011;3800;48.922;9.444;2022-11-15T03:54:53;5.73;;;4.60;;
7517;SDS011;3800;48.922;9.444;2022-11-15T03:57:20;7.27;;;4.90;;
7517;SDS011;3800;48.922;9.444;2022-11-15T03:59:47;4.87;;;4.30;;
7517;SDS011;3800;48.922;9.444;2022-11-15T04:02:16;6.97;;;4.90;;
7517;SDS011;3800;48.922;9.444;2022-11-15T04:04:42;6.90;;;4.83;;
7517;SDS011;3800;48.922;9.444;2022-11-15T04:07:11;7.03;;;4.60;;
7517;SDS011;3800;48.922;9.444;2022-11-15T04:09:39;6.60;;;5.20;;
7517;SDS011;3800;48.922;9.444;2022-11-15T04:12:12;5.10;;;4.30;;
7517;SDS011;3800;48.922;9.444;2022-11-15T04:14:39;7.77;;;4.73;;
7517;SDS011;3800;48.922;9.444;2022-11-15T04:17:07;4.73;;;4.27;;
7517;SDS011;3800;48.922;9.444;2022-11-15T04:19:35;5.80;;;4.43;;
7517;SDS011;3800;48.922;9.444;2022-11-15T04:22:08;8.13;;;4.37;;
7517;SDS011;3800;48.922;9.444;2022-11-15T04:24:41;6.40;;;4.60;;
7517;SDS011;3800;48.922;9.444;2022-11-15T04:27:09;4.93;;;4.43;;
7517;SDS011;3800;48.922;9.444;2022-11-15T04:29:36;7.27;;;4.80;;
7517;SDS011;3800;48.922;9.444;2022-11-15T04:32:05;7.23;;;4.40;;
7517;SDS011;3800;48.922;9.444;2022-11-15T04:34:32;6.63;;;4.80;;
7517;SDS011;3800;48.922;9.444;2022-11-15T04:37:00;5.57;;;4.87;;
7517;SDS011;3800;48.922;9.444;2022-11-15T04:39:33;6.17;;;4.63;;
7517;SDS011;3800;48.922;9.444;2022-11-15T04:42:00;5.40;;;4.50;;
7517;SDS011;3800;48.922;9.444;2022-11-15T04:44:28;6.67;;;4.83;;
7517;SDS011;3800;48.922;9.444;2022-11-15T04:46:56;6.60;;;4.50;;
7517;SDS011;3800;48.922;9.444;2022-11-15T04:49:23;9.10;;;4.40;;
7517;SDS011;3800;48.922;9.444;2022-11-15T04:51:51;6.30;;;4.73;;
7517;SDS011;3800;48.922;9.444;2022-11-15T04:54:18;6.27;;;4.60;;
7517;SDS011;3800;48.922;9.444;2022-11-15T04:56:46;6.87;;;4.83;;
7517;SDS011;3800;48.922;9.444;2022-11-15T04:59:14;5.33;;;4.30;;
7517;SDS011;3800;48.922;9.444;2022-11-15T05:01:41;9.87;;;5.07;;
7517;SDS011;3800;48.922;9.444;2022-11-15T05:04:09;8.00;;;5.07;;
7517;SDS011;3800;48.922;9.444;2022-11-15T05:06:42;9.83;;;5.80;;
7517;SDS011;3800;48.922;9.444;2022-11-15T05:09:09;10.03;;;5.50;;
7517;SDS011;3800;48.922;9.444;2022-11-15T05:11:37;7.20;;;5.50;;
7517;SDS011;3800;48.922;9.444;2022-11-15T05:14:05;7.47;;;5.20;;
7517;SDS011;3800;48.922;9.444;2022-11-15T05:16:32;8.20;;;5.30;;
7517;SDS011;3800;48.922;9.444;2022-11-15T05:19:00;8.97;;;5.37;;
7517;SDS011;3800;48.922;9.444;2022-11-15T05:21:28;7.27;;;4.50;;
7517;SDS011;3800;48.922;9.444;2022-11-15T05:23:56;5.47;;;4.37;;
7517;SDS011;3800;48.922;9.444;2022-11-15T05:26:24;5.43;;;4.23;;
7517;SDS011;3800;48.922;9.444;2022-11-15T05:28:52;4.67;;;4.03;;
7517;SDS011;3800;48.922;9.444;2022-11-15T05:31:20;5.17;;;4.27;;
7517;SDS011;3800;48.922;9.444;2022-11-15T05:33:48;6.40;;;4.30;;
7517;SDS011;3800;48.922;9.444;2022-11-15T05:36:18;5.83;;;3.70;;
7517;SDS011;3800;48.922;9.444;2022-11-15T05:38:48;5.67;;;4.77;;
7517;SDS011;3800;48.922;9.444;2022-11-15T05:41:18;5.00;;;4.43;;
7517;SDS011;3800;48.922;9.444;2022-11-15T05:43:45;5.47;;;4.77;;
7517;SDS011;3800;48.922;9.444;2022-11-15T05:46:12;6.53;;;4.70;;
7517;SDS011;3800;48.922;9.444;2022-11-15T05:48:41;5.80;;;3.90;;
7517;SDS011;3800;48.922;9.444;2022-11-15T05:51:08;5.07;;;4.10;;
7517;SDS011;3800;48.922;9.444;2022-11-15T05:53:36;4.47;;;4.00;;
7517;SDS011;3800;48.922;9.444;2022-11-15T05:56:04;7.90;;;4.30;;
7517;SDS011;3800;48.922;9.444;2022-11-15T05:58:32;5.33;;;4.17;;
7517;SDS011;3800;48.922;9.444;2022-11-15T06:01:00;6.17;;;3.97;;
7517;SDS011;3800;48.922;9.444;2022-11-15T06:03:27;4.83;;;4.33;;
7517;SDS011;3800;48.922;9.444;2022-11-15T06:05:56;5.37;;;4.30;;
7517;SDS011;3800;48.922;9.444;2022-11-15T06:08:23;4.53;;;4.13;;
7517;SDS011;3800;48.922;9.444;2022-11-15T06:10:50;5.77;;;4.03;;
7517;SDS011;3800;48.922;9.444;2022-11-15T06:13:18;4.90;;;4.20;;
7517;SDS011;3800;48.922;9.444;2022-11-15T06:15:45;5.13;;;3.77;;
7517;SDS011;3800;48.922;9.444;2022-11-15T06:18:14;5.80;;;4.10;;
7517;SDS011;3800;48.922;9.444;2022-11-15T06:20:41;6.33;;;4.40;;
7517;SDS011;3800;48.922;9.444;2022-11-15T06:23:09;5.87;;;4.33;;
7517;SDS011;3800;48.922;9.444;2022-11-15T06:25:37;4.80;;;4.30;;
7517;SDS011;3800;48.922;9.444;2022-11-15T06:28:04;4.33;;;3.80;;
7517;SDS011;3800;48.922;9.444;2022-11-15T06:30:32;5.40;;;4.00;;
7517;SDS011;3800;48.922;9.444;2022-11-15T06:33:00;6.83;;;3.93;;
7517;SDS011;3800;48.922;9.444;2022-11-15T06:35:28;5.67;;;4.10;;
7517;SDS011;3800;48.922;9.444;2022-11-15T06:37:56;5.13;;;4.10;;
7517;SDS011;3800;48.922;9.444;2022-11-15T06:40:23;6.43;;;5.20;;
7517;SDS011;3800;48.922;9.444;2022-11-15T06:42:51;7.37;;;5.07;;
7517;SDS011;3800;48.922;9.444;2022-11-15T06:45:19;5.53;;;4.20;;
7517;SDS011;3800;48.922;9.444;2022-11-15T06:47:47;5.97;;;5.00;;
7517;SDS011;3800;48.922;9.444;2022-11-15T06:50:15;5.90;;;4.63;;
7517;SDS011;3800;48.922;9.444;2022-11-15T06:52:42;4.67;;;4.20;;
7517;SDS011;3800;48.922;9.444;2022-11-15T06:55:10;5.60;;;4.10;;
7517;SDS011;3800;48.922;9.444;2022-11-15T06:57:40;6.37;;;4.60;;
7517;SDS011;3800;48.922;9.444;2022-11-15T07:00:05;8.53;;;5.00;;
7517;SDS011;3800;48.922;9.444;2022-11-15T07:02:33;5.33;;;4.63;;
7517;SDS011;3800;48.922;9.444;2022-11-15T07:05:01;7.03;;;4.97;;
7517;SDS011;3800;48.922;9.444;2022-11-15T07:07:29;6.27;;;4.73;;
7517;SDS011;3800;48.922;9.444;2022-11-15T07:09:56;6.07;;;4.53;;
7517;SDS011;3800;48.922;9.444;2022-11-15T07:12:24;6.63;;;4.53;;
7517;SDS011;3800;48.922;9.444;2022-11-15T07:14:51;5.73;;;4.10;;
7517;SDS011;3800;48.922;9.444;2022-11-15T07:17:19;6.63;;;4.40;;
7517;SDS011;3800;48.922;9.444;2022-11-15T07:19:47;5.20;;;4.40;;
7517;SDS011;3800;48.922;9.444;2022-11-15T07:22:14;5.73;;;5.07;;
7517;SDS011;3800;48.922;9.444;2022-11-15T07:24:42;5.77;;;5.13;;
7517;SDS011;3800;48.922;9.444;2022-11-15T07:27:10;4.27;;;3.87;;
7517;SDS011;3800;48.922;9.444;2022-11-15T07:29:38;8.20;;;4.80;;
7517;SDS011;3800;48.922;9.444;2022-11-15T07:32:06;7.57;;;6.00;;
7517;SDS011;3800;48.922;9.444;2022-11-15T07:34:33;8.00;;;6.70;;
7517;SDS011;3800;48.922;9.444;2022-11-15T07:37:01;9.60;;;6.60;;
7517;SDS011;3800;48.922;9.444;2022-11-15T07:39:29;9.40;;;6.13;;
7517;SDS011;3800;48.922;9.444;2022-11-15T07:41:56;9.90;;;7.13;;
7517;SDS011;3800;48.922;9.444;2022-11-15T07:44:39;7.83;;;6.50;;
7517;SDS011;3800;48.922;9.444;2022-11-15T07:47:06;7.10;;;6.37;;
7517;SDS011;3800;48.922;9.444;2022-11-15T07:49:34;8.50;;;6.00;;
7517;SDS011;3800;48.922;9.444;2022-11-15T07:52:02;7.73;;;6.00;;
7517;SDS011;3800;48.922;9.444;2022-11-15T07:54:29;7.90;;;5.90;;
7517;SDS011;3800;48.922;9.444;2022-11-15T07:56:57;8.17;;;5.80;;
7517;SDS011;3800;48.922;9.444;2022-11-15T07:59:24;7.53;;;5.80;;
7517;SDS011;3800;48.922;9.444;2022-11-15T08:01:52;6.87;;;5.83;;
7517;SDS011;3800;48.922;9.444;2022-11-15T08:04:20;11.30;;;7.80;;
7517;SDS011;3800;48.922;9.444;2022-11-15T08:06:47;18.03;;;13.40;;
7517;SDS011;3800;48.922;9.444;2022-11-15T08:09:15;16.33;;;11.77;;
7517;SDS011;3800;48.922;9.444;2022-11-15T08:11:43;15.03;;;10.63;;
7517;SDS011;3800;48.922;9.444;2022-11-15T08:14:10;15.27;;;11.53;;
7517;SDS011;3800;48.922;9.444;2022-11-15T08:16:38;13.97;;;9.40;;
7517;SDS011;3800;48.922;9.444;2022-11-15T08:19:06;10.80;;;8.47;;
7517;SDS011;3800;48.922;9.444;2022-11-15T08:21:33;11.00;;;7.97;;
7517;SDS011;3800;48.922;9.444;2022-11-15T08:24:01;7.53;;;6.40;;
7517;SDS011;3800;48.922;9.444;2022-11-15T08:26:28;8.57;;;6.03;;
7517;SDS011;3800;48.922;9.444;2022-11-15T08:28:56;7.57;;;5.83;;
7517;SDS011;3800;48.922;9.444;2022-11-15T08:31:24;7.60;;;6.00;;
7517;SDS011;3800;48.922;9.444;2022-11-15T08:33:51;7.37;;;6.03;;
7517;SDS011;3800;48.922;9.444;2022-11-15T08:36:19;8.67;;;5.37;;
7517;SDS011;3800;48.922;9.444;2022-11-15T08:38:47;6.20;;;5.50;;
7517;SDS011;3800;48.922;9.444;2022-11-15T08:41:24;6.20;;;5.60;;
7517;SDS011;3800;48.922;9.444;2022-11-15T08:43:58;6.80;;;5.30;;
7517;SDS011;3800;48.922;9.444;2022-11-15T08:46:26;8.60;;;5.13;;
7517;SDS011;3800;48.922;9.444;2022-11-15T08:48:53;6.57;;;5.17;;
7517;SDS011;3800;48.922;9.444;2022-11-15T08:51:22;6.73;;;4.70;;
7517;SDS011;3800;48.922;9.444;2022-11-15T08:53:50;6.13;;;4.57;;
7517;SDS011;3800;48.922;9.444;2022-11-15T08:56:17;7.60;;;4.37;;
7517;SDS011;3800;48.922;9.444;2022-11-15T08:58:45;5.33;;;4.43;;
7517;SDS011;3800;48.922;9.444;2022-11-15T09:01:15;7.90;;;4.13;;
7517;SDS011;3800;48.922;9.444;2022-11-15T09:03:42;5.47;;;4.10;;
7517;SDS011;3800;48.922;9.444;2022-11-15T09:06:09;4.70;;;3.90;;
7517;SDS011;3800;48.922;9.444;2022-11-15T09:08:37;5.40;;;3.60;;
7517;SDS011;3800;48.922;9.444;2022-11-15T09:11:05;3.80;;;3.40;;
7517;SDS011;3800;48.922;9.444;2022-11-15T09:13:32;4.40;;;4.00;;
7517;SDS011;3800;48.922;9.444;2022-11-15T09:16:00;5.17;;;4.67;;
7517;SDS011;3800;48.922;9.444;2022-11-15T09:18:28;7.47;;;5.47;;
7517;SDS011;3800;48.922;9.444;2022-11-15T09:20:56;8.30;;;6.53;;
7517;SDS011;3800;48.922;9.444;2022-11-15T09:23:23;6.83;;;6.00;;
7517;SDS011;3800;48.922;9.444;2022-11-15T09:25:51;7.57;;;5.17;;
7517;SDS011;3800;48.922;9.444;2022-11-15T09:28:20;5.03;;;4.17;;
7517;SDS011;3800;48.922;9.444;2022-11-15T09:30:47;6.40;;;4.27;;
7517;SDS011;3800;48.922;9.444;2022-11-15T09:33:15;5.73;;;4.07;;
7517;SDS011;3800;48.922;9.444;2022-11-15T09:35:43;4.73;;;3.93;;
7517;SDS011;3800;48.922;9.444;2022-11-15T09:38:11;6.13;;;3.77;;
7517;SDS011;3800;48.922;9.444;2022-11-15T09:40:38;5.23;;;3.70;;
7517;SDS011;3800;48.922;9.444;2022-11-15T09:46:02;9.57;;;4.30;;
7517;SDS011;3800;48.922;9.444;2022-11-15T09:48:35;5.70;;;3.80;;
7517;SDS011;3800;48.922;9.444;2022-11-15T09:51:03;4.10;;;3.33;;
7517;SDS011;3800;48.922;9.444;2022-11-15T09:53:34;5.00;;;3.73;;
7517;SDS011;3800;48.922;9.444;2022-11-15T09:56:13;6.10;;;3.20;;
7517;SDS011;3800;48.922;9.444;2022-11-15T09:59:56;4.73;;;3.40;;
7517;SDS011;3800;48.922;9.444;2022-11-15T10:04:42;5.43;;;3.53;;
7517;SDS011;3800;48.922;9.444;2022-11-15T10:07:14;4.57;;;3.40;;
7517;SDS011;3800;48.922;9.444;2022-11-15T10:09:44;8.57;;;3.80;;
7517;SDS011;3800;48.922;9.444;2022-11-15T10:12:10;4.80;;;3.63;;
7517;SDS011;3800;48.922;9.444;2022-11-15T10:14:37;4.20;;;3.10;;
7517;SDS011;3800;48.922;9.444;2022-11-15T10:17:08;5.10;;;3.40;;
7517;SDS011;3800;48.922;9.444;2022-11-15T10:22:51;4.20;;;2.97;;
7517;SDS011;3800;48.922;9.444;2022-11-15T10:25:22;4.50;;;3.10;;
7517;SDS011;3800;48.922;9.444;2022-11-15T10:27:55;3.70;;;3.20;;
7517;SDS011;3800;48.922;9.444;2022-11-15T10:30:22;3.40;;;3.10;;
7517;SDS011;3800;48.922;9.444;2022-11-15T10:32:49;4.87;;;3.67;;
7517;SDS011;3800;48.922;9.444;2022-11-15T10:35:19;5.03;;;3.60;;
7517;SDS011;3800;48.922;9.444;2022-11-15T10:37:45;5.97;;;3.77;;
7517;SDS011;3800;48.922;9.444;2022-11-15T10:40:21;4.10;;;3.53;;
7517;SDS011;3800;48.922;9.444;2022-11-15T10:43:03;4.73;;;3.30;;
7517;SDS011;3800;48.922;9.444;2022-11-15T10:45:25;7.80;;;3.80;;
7517;SDS011;3800;48.922;9.444;2022-11-15T10:47:51;6.80;;;4.00;;
7517;SDS011;3800;48.922;9.444;2022-11-15T10:52:54;4.20;;;3.13;;
7517;SDS011;3800;48.922;9.444;2022-11-15T10:55:25;4.20;;;3.43;;
7517;SDS011;3800;48.922;9.444;2022-11-15T10:57:53;3.90;;;3.33;;
7517;SDS011;3800;48.922;9.444;2022-11-15T11:00:29;4.47;;;3.40;;
7517;SDS011;3800;48.922;9.444;2022-11-15T11:03:00;5.10;;;2.93;;
7517;SDS011;3800;48.922;9.444;2022-11-15T11:05:41;4.00;;;3.00;;
7517;SDS011;3800;48.922;9.444;2022-11-15T11:08:20;3.60;;;2.93;;
7517;SDS011;3800;48.922;9.444;2022-11-15T11:10:52;5.07;;;3.23;;
7517;SDS011;3800;48.922;9.444;2022-11-15T11:13:21;4.17;;;3.03;;
7517;SDS011;3800;48.922;9.444;2022-11-15T11:15:51;4.37;;;2.87;;
7517;SDS011;3800;48.922;9.444;2022-11-15T11:18:25;4.47;;;2.83;;
7517;SDS011;3800;48.922;9.444;2022-11-15T11:20:54;2.97;;;2.40;;
7517;SDS011;3800;48.922;9.444;2022-11-15T11:23:33;4.10;;;3.00;;
7517;SDS011;3800;48.922;9.444;2022-11-15T11:28:42;2.77;;;2.40;;
7517;SDS011;3800;48.922;9.444;2022-11-15T11:31:18;5.30;;;2.93;;
7517;SDS011;3800;48.922;9.444;2022-11-15T11:33:46;4.43;;;2.93;;
7517;SDS011;3800;48.922;9.444;2022-11-15T11:38:53;6.67;;;3.87;;
7517;SDS011;3800;48.922;9.444;2022-11-15T11:41:24;3.80;;;3.30;;
7517;SDS011;3800;48.922;9.444;2022-11-15T11:44:21;5.23;;;4.10;;
7517;SDS011;3800;48.922;9.444;2022-11-15T11:46:49;6.43;;;3.93;;
7517;SDS011;3800;48.922;9.444;2022-11-15T11:49:21;4.97;;;3.50;;
7517;SDS011;3800;48.922;9.444;2022-11-15T11:51:52;5.43;;;3.93;;
7517;SDS011;3800;48.922;9.444;2022-11-15T11:54:25;5.93;;;3.90;;
7517;SDS011;3800;48.922;9.444;2022-11-15T11:57:06;4.73;;;4.00;;
7517;SDS011;3800;48.922;9.444;2022-11-15T11:59:36;4.67;;;3.50;;
7517;SDS011;3800;48.922;9.444;2022-11-15T12:02:02;9.60;;;3.73;;
7517;SDS011;3800;48.922;9.444;2022-11-15T12:04:30;5.33;;;3.90;;
7517;SDS011;3800;48.922;9.444;2022-11-15T12:09:44;6.30;;;4.23;;
7517;SDS011;3800;48.922;9.444;2022-11-15T12:12:23;4.50;;;4.07;;
7517;SDS011;3800;48.922;9.444;2022-11-15T12:14:51;4.30;;;3.90;;
7517;SDS011;3800;48.922;9.444;2022-11-15T12:17:22;7.03;;;3.50;;
7517;SDS011;3800;48.922;9.444;2022-11-15T12:19:49;5.50;;;4.17;;
7517;SDS011;3800;48.922;9.444;2022-11-15T12:22:18;5.43;;;3.90;;
7517;SDS011;3800;48.922;9.444;2022-11-15T12:24:46;4.93;;;3.67;;
7517;SDS011;3800;48.922;9.444;2022-11-15T12:27:20;4.53;;;3.60;;
7517;SDS011;3800;48.922;9.444;2022-11-15T12:29:48;4.17;;;3.33;;
7517;SDS011;3800;48.922;9.444;2022-11-15T12:32:31;4.07;;;3.60;;
7517;SDS011;3800;48.922;9.444;2022-11-15T12:35:01;4.33;;;3.47;;
7517;SDS011;3800;48.922;9.444;2022-11-15T12:37:49;6.07;;;3.60;;
7517;SDS011;3800;48.922;9.444;2022-11-15T12:40:23;4.93;;;3.57;;
7517;SDS011;3800;48.922;9.444;2022-11-15T12:42:57;5.10;;;3.07;;
7517;SDS011;3800;48.922;9.444;2022-11-15T12:45:30;3.43;;;2.97;;
7517;SDS011;3800;48.922;9.444;2022-11-15T12:50:58;3.87;;;2.73;;
7517;SDS011;3800;48.922;9.444;2022-11-15T12:53:26;3.70;;;3.10;;
7517;SDS011;3800;48.922;9.444;2022-11-15T12:56:30;4.37;;;3.33;;
7517;SDS011;3800;48.922;9.444;2022-11-15T12:58:49;4.67;;;3.50;;
7517;SDS011;3800;48.922;9.444;2022-11-15T13:04:08;4.07;;;3.53;;
7517;SDS011;3800;48.922;9.444;2022-11-15T13:06:42;6.03;;;3.33;;
7517;SDS011;3800;48.922;9.444;2022-11-15T13:12:03;5.10;;;3.83;;
7517;SDS011;3800;48.922;9.444;2022-11-15T13:14:44;5.87;;;3.93;;
7517;SDS011;3800;48.922;9.444;2022-11-15T13:22:39;4.77;;;3.13;;
7517;SDS011;3800;48.922;9.444;2022-11-15T13:25:16;3.67;;;2.90;;
7517;SDS011;3800;48.922;9.444;2022-11-15T13:27:42;3.63;;;2.70;;
7517;SDS011;3800;48.922;9.444;2022-11-15T13:30:20;4.30;;;2.60;;
7517;SDS011;3800;48.922;9.444;2022-11-15T13:32:48;4.03;;;2.57;;
7517;SDS011;3800;48.922;9.444;2022-11-15T13:35:22;6.57;;;2.60;;
7517;SDS011;3800;48.922;9.444;2022-11-15T13:37:49;4.37;;;2.50;;
7517;SDS011;3800;48.922;9.444;2022-11-15T13:40:19;4.83;;;2.97;;
7517;SDS011;3800;48.922;9.444;2022-11-15T13:42:48;4.83;;;2.50;;
7517;SDS011;3800;48.922;9.444;2022-11-15T13:45:18;3.77;;;2.97;;
7517;SDS011;3800;48.922;9.444;2022-11-15T13:47:44;3.97;;;2.20;;
7517;SDS011;3800;48.922;9.444;2022-11-15T13:50:12;3.63;;;2.20;;
7517;SDS011;3800;48.922;9.444;2022-11-15T13:52:40;4.30;;;2.53;;
7517;SDS011;3800;48.922;9.444;2022-11-15T13:55:11;2.17;;;1.80;;
7517;SDS011;3800;48.922;9.444;2022-11-15T13:57:40;2.70;;;1.90;;
7517;SDS011;3800;48.922;9.444;2022-11-15T14:00:24;3.40;;;2.37;;
7517;SDS011;3800;48.922;9.444;2022-11-15T14:02:37;2.67;;;1.93;;
7517;SDS011;3800;48.922;9.444;2022-11-15T14:05:20;2.03;;;1.60;;
7517;SDS011;3800;48.922;9.444;2022-11-15T14:08:01;6.57;;;1.90;;
7517;SDS011;3800;48.922;9.444;2022-11-15T14:10:31;3.13;;;1.83;;
7517;SDS011;3800;48.922;9.444;2022-11-15T14:12:58;5.20;;;2.47;;
7517;SDS011;3800;48.922;9.444;2022-11-15T14:15:30;3.87;;;2.33;;
7517;SDS011;3800;48.922;9.444;2022-11-15T14:17:59;4.53;;;2.33;;
7517;SDS011;3800;48.922;9.444;2022-11-15T14:20:28;3.20;;;2.13;;
7517;SDS011;3800;48.922;9.444;2022-11-15T14:22:56;2.90;;;1.93;;
7517;SDS011;3800;48.922;9.444;2022-11-15T14:25:24;3.20;;;2.30;;
7517;SDS011;3800;48.922;9.444;2022-11-15T14:30:32;3.57;;;2.40;;
7517;SDS011;3800;48.922;9.444;2022-11-15T14:32:59;2.97;;;2.50;;
7517;SDS011;3800;48.922;9.444;2022-11-15T14:35:27;2.60;;;2.40;;
7517;SDS011;3800;48.922;9.444;2022-11-15T14:37:55;4.20;;;2.27;;
7517;SDS011;3800;48.922;9.444;2022-11-15T14:40:22;3.97;;;2.43;;
7517;SDS011;3800;48.922;9.444;2022-11-15T14:42:50;2.50;;;2.10;;
7517;SDS011;3800;48.922;9.444;2022-11-15T14:45:18;5.37;;;2.50;;
7517;SDS011;3800;48.922;9.444;2022-11-15T14:47:45;4.40;;;2.20;;
7517;SDS011;3800;48.922;9.444;2022-11-15T14:50:13;3.40;;;2.03;;
7517;SDS011;3800;48.922;9.444;2022-11-15T14:52:41;3.50;;;2.10;;
7517;SDS011;3800;48.922;9.444;2022-11-15T14:55:26;2.30;;;2.10;;
7517;SDS011;3800;48.922;9.444;2022-11-15T14:57:52;3.30;;;2.53;;
7517;SDS011;3800;48.922;9.444;2022-11-15T15:00:20;2.67;;;2.17;;
7517;SDS011;3800;48.922;9.444;2022-11-15T15:02:49;2.77;;;2.43;;
7517;SDS011;3800;48.922;9.444;2022-11-15T15:05:18;2.20;;;2.00;;
7517;SDS011;3800;48.922;9.444;2022-11-15T15:07:45;2.63;;;2.30;;
7517;SDS011;3800;48.922;9.444;2022-11-15T15:10:13;3.40;;;2.37;;
7517;SDS011;3800;48.922;9.444;2022-11-15T15:12:40;2.90;;;2.17;;
7517;SDS011;3800;48.922;9.444;2022-11-15T15:15:14;2.93;;;2.20;;
7517;SDS011;3800;48.922;9.444;2022-11-15T15:17:41;3.40;;;2.17;;
7517;SDS011;3800;48.922;9.444;2022-11-15T15:20:09;6.90;;;2.60;;
7517;SDS011;3800;48.922;9.444;2022-11-15T15:22:37;3.37;;;2.40;;
7517;SDS011;3800;48.922;9.444;2022-11-15T15:25:10;3.53;;;2.70;;
7517;SDS011;3800;48.922;9.444;2022-11-15T15:27:46;5.10;;;2.73;;
7517;SDS011;3800;48.922;9.444;2022-11-15T15:30:14;3.67;;;2.83;;
7517;SDS011;3800;48.922;9.444;2022-11-15T15:32:42;3.87;;;2.50;;
7517;SDS011;3800;48.922;9.444;2022-11-15T15:35:11;5.03;;;2.70;;
7517;SDS011;3800;48.922;9.444;2022-11-15T15:37:39;5.73;;;2.97;;
7517;SDS011;3800;48.922;9.444;2022-11-15T15:40:10;3.50;;;3.00;;
7517;SDS011;3800;48.922;9.444;2022-11-15T15:42:35;5.83;;;2.97;;
7517;SDS011;3800;48.922;9.444;2022-11-15T15:45:03;3.57;;;2.60;;
7517;SDS011;3800;48.922;9.444;2022-11-15T15:47:31;4.57;;;2.77;;
7517;SDS011;3800;48.922;9.444;2022-11-15T15:49:59;5.43;;;3.00;;
7517;SDS011;3800;48.922;9.444;2022-11-15T15:52:27;4.30;;;3.00;;
7517;SDS011;3800;48.922;9.444;2022-11-15T15:54:55;5.13;;;3.33;;
7517;SDS011;3800;48.922;9.444;2022-11-15T15:57:22;4.30;;;3.10;;
7517;SDS011;3800;48.922;9.444;2022-11-15T15:59:50;3.40;;;3.07;;
7517;SDS011;3800;48.922;9.444;2022-11-15T16:02:18;3.40;;;2.80;;
7517;SDS011;3800;48.922;9.444;2022-11-15T16:04:46;4.07;;;2.93;;
7517;SDS011;3800;48.922;9.444;2022-11-15T16:07:16;3.10;;;2.80;;
7517;SDS011;3800;48.922;9.444;2022-11-15T16:09:42;2.90;;;2.60;;
7517;SDS011;3800;48.922;9.444;2022-11-15T16:12:29;2.70;;;2.40;;